N658KP KSEZ-KSMO
Flight info
| Callsign | N658KP |
|---|---|
| Flight time | 1h 46m |
| Altitude | 10000 |
| Route | DCT DRK V12 BASAL V394 APLES V442 RRIZE V264 STABO V107 SMO |
| Aircraft | C310/L-SDFGR/S |
Departure
| Time | 2026-04-29 04:57 |
|---|---|
| Airport | Sedona Airport (KSEZ) |
Arrival
| Time | 2026-04-29 06:43 |
|---|---|
| Airport | Santa Monica Municipal Airport (KSMO) |
| Time | Latitude | Longitude | Altitude | Speed | Heading |
|---|---|---|---|---|---|
| 2026-04-29 04:45 | 34.84911 | -111.78992 | 4760 ft | 0 kts | 315° |
| 2026-04-29 04:50 | 34.84912 | -111.78993 | 4760 ft | 0 kts | 315° |
| 2026-04-29 04:50 | 34.84914 | -111.78999 | 4761 ft | 1 kts | 294° |
| 2026-04-29 04:50 | 34.84901 | -111.79027 | 4758 ft | 6 kts | 222° |
| 2026-04-29 04:51 | 34.84856 | -111.79054 | 4754 ft | 8 kts | 149° |
| 2026-04-29 04:51 | 34.84829 | -111.79005 | 4754 ft | 5 kts | 72° |
| 2026-04-29 04:51 | 34.84848 | -111.78979 | 4755 ft | 3 kts | 45° |
| 2026-04-29 04:51 | 34.84864 | -111.78960 | 4757 ft | 3 kts | 44° |
| 2026-04-29 04:52 | 34.84888 | -111.78930 | 4758 ft | 8 kts | 46° |
| 2026-04-29 04:52 | 34.84940 | -111.78867 | 4764 ft | 10 kts | 44° |
| 2026-04-29 04:52 | 34.84988 | -111.78806 | 4768 ft | 10 kts | 47° |
| 2026-04-29 04:52 | 34.85048 | -111.78730 | 4770 ft | 15 kts | 45° |
| 2026-04-29 04:53 | 34.85123 | -111.78638 | 4776 ft | 15 kts | 44° |
| 2026-04-29 04:53 | 34.85200 | -111.78541 | 4779 ft | 17 kts | 45° |
| 2026-04-29 04:53 | 34.85286 | -111.78434 | 4778 ft | 18 kts | 45° |
| 2026-04-29 04:53 | 34.85368 | -111.78319 | 4778 ft | 15 kts | 75° |
| 2026-04-29 04:54 | 34.85372 | -111.78283 | 4777 ft | 0 kts | 163° |
| 2026-04-29 04:56 | 34.85362 | -111.78277 | 4777 ft | 5 kts | 151° |
| 2026-04-29 04:56 | 34.85282 | -111.78313 | 4774 ft | 26 kts | 225° |
| 2026-04-29 04:56 | 34.84943 | -111.78742 | 4788 ft | 103 kts | 222° |
| 2026-04-29 04:56 | 34.84410 | -111.79408 | 5158 ft | 117 kts | 218° |
| 2026-04-29 04:57 | 34.83765 | -111.80058 | 5672 ft | 124 kts | 216° |
| 2026-04-29 04:57 | 34.83119 | -111.80719 | 6185 ft | 122 kts | 217° |
| 2026-04-29 04:57 | 34.82474 | -111.81403 | 6569 ft | 128 kts | 224° |
| 2026-04-29 04:57 | 34.82245 | -111.82479 | 6958 ft | 143 kts | 272° |
| 2026-04-29 04:58 | 34.82467 | -111.83687 | 7346 ft | 146 kts | 274° |
| 2026-04-29 04:58 | 34.82611 | -111.84901 | 7823 ft | 141 kts | 268° |
| 2026-04-29 04:58 | 34.82658 | -111.86054 | 8318 ft | 135 kts | 264° |
| 2026-04-29 04:58 | 34.82636 | -111.87161 | 8815 ft | 129 kts | 259° |
| 2026-04-29 04:59 | 34.82544 | -111.88219 | 9312 ft | 125 kts | 256° |
| 2026-04-29 04:59 | 34.82424 | -111.89251 | 9760 ft | 126 kts | 255° |
| 2026-04-29 04:59 | 34.82264 | -111.90387 | 9861 ft | 149 kts | 255° |
| 2026-04-29 04:59 | 34.82059 | -111.91697 | 9873 ft | 164 kts | 254° |
| 2026-04-29 05:00 | 34.81818 | -111.93117 | 9871 ft | 174 kts | 253° |
| 2026-04-29 05:00 | 34.81552 | -111.94583 | 9869 ft | 181 kts | 253° |
| 2026-04-29 05:00 | 34.81267 | -111.96079 | 9867 ft | 185 kts | 253° |
| 2026-04-29 05:00 | 34.80966 | -111.97617 | 9866 ft | 187 kts | 252° |
| 2026-04-29 05:01 | 34.80653 | -111.99176 | 9865 ft | 189 kts | 252° |
| 2026-04-29 05:01 | 34.80340 | -112.00713 | 9864 ft | 190 kts | 252° |
| 2026-04-29 05:01 | 34.80019 | -112.02273 | 9864 ft | 190 kts | 252° |
| 2026-04-29 05:01 | 34.79692 | -112.03847 | 9864 ft | 191 kts | 252° |
| 2026-04-29 05:02 | 34.79364 | -112.05418 | 9864 ft | 191 kts | 252° |
| 2026-04-29 05:02 | 34.79039 | -112.06968 | 9863 ft | 191 kts | 252° |
| 2026-04-29 05:02 | 34.78706 | -112.08550 | 9863 ft | 191 kts | 252° |
| 2026-04-29 05:02 | 34.78377 | -112.10111 | 9863 ft | 191 kts | 252° |
| 2026-04-29 05:03 | 34.78044 | -112.11691 | 9863 ft | 191 kts | 252° |
| 2026-04-29 05:03 | 34.77681 | -112.13405 | 9863 ft | 191 kts | 252° |
| 2026-04-29 05:03 | 34.77311 | -112.15155 | 9863 ft | 191 kts | 252° |
| 2026-04-29 05:03 | 34.76940 | -112.16908 | 9879 ft | 191 kts | 252° |
| 2026-04-29 05:04 | 34.76582 | -112.18596 | 9882 ft | 190 kts | 252° |
| 2026-04-29 05:04 | 34.76221 | -112.20297 | 9881 ft | 190 kts | 252° |
| 2026-04-29 05:04 | 34.75863 | -112.21983 | 9881 ft | 190 kts | 252° |
| 2026-04-29 05:04 | 34.75497 | -112.23704 | 9881 ft | 190 kts | 252° |
| 2026-04-29 05:05 | 34.75124 | -112.25455 | 9881 ft | 190 kts | 251° |
| 2026-04-29 05:05 | 34.74753 | -112.27209 | 9882 ft | 189 kts | 251° |
| 2026-04-29 05:05 | 34.74385 | -112.28938 | 9881 ft | 189 kts | 251° |
| 2026-04-29 05:05 | 34.74024 | -112.30625 | 9881 ft | 188 kts | 251° |
| 2026-04-29 05:06 | 34.73663 | -112.32317 | 9881 ft | 188 kts | 251° |
| 2026-04-29 05:06 | 34.73325 | -112.33897 | 9881 ft | 188 kts | 251° |
| 2026-04-29 05:06 | 34.72987 | -112.35488 | 9881 ft | 188 kts | 252° |
| 2026-04-29 05:06 | 34.72649 | -112.37120 | 9881 ft | 188 kts | 251° |
| 2026-04-29 05:07 | 34.72328 | -112.38648 | 9881 ft | 188 kts | 251° |
| 2026-04-29 05:07 | 34.72003 | -112.40183 | 9881 ft | 188 kts | 251° |
| 2026-04-29 05:07 | 34.71659 | -112.41777 | 9881 ft | 188 kts | 251° |
| 2026-04-29 05:07 | 34.71307 | -112.43413 | 9881 ft | 188 kts | 251° |
| 2026-04-29 05:08 | 34.70953 | -112.45051 | 9880 ft | 188 kts | 251° |
| 2026-04-29 05:08 | 34.70594 | -112.46708 | 9880 ft | 188 kts | 251° |
| 2026-04-29 05:08 | 34.70464 | -112.48387 | 9884 ft | 191 kts | 263° |
| 2026-04-29 05:08 | 34.70452 | -112.49989 | 9880 ft | 192 kts | 266° |
| 2026-04-29 05:09 | 34.70473 | -112.51618 | 9881 ft | 192 kts | 266° |
| 2026-04-29 05:09 | 34.70512 | -112.53247 | 9880 ft | 192 kts | 267° |
| 2026-04-29 05:09 | 34.70561 | -112.54876 | 9880 ft | 192 kts | 267° |
| 2026-04-29 05:09 | 34.70618 | -112.56527 | 9880 ft | 192 kts | 267° |
| 2026-04-29 05:10 | 34.70683 | -112.58265 | 9880 ft | 193 kts | 268° |
| 2026-04-29 05:10 | 34.70758 | -112.60148 | 9880 ft | 193 kts | 268° |
| 2026-04-29 05:10 | 34.70834 | -112.62042 | 9880 ft | 193 kts | 268° |
| 2026-04-29 05:10 | 34.70907 | -112.63810 | 9880 ft | 193 kts | 268° |
| 2026-04-29 05:11 | 34.70978 | -112.65433 | 9881 ft | 193 kts | 269° |
| 2026-04-29 05:11 | 34.71149 | -112.67152 | 9882 ft | 194 kts | 271° |
| 2026-04-29 05:11 | 34.71319 | -112.68903 | 9883 ft | 194 kts | 272° |
| 2026-04-29 05:11 | 34.71503 | -112.70674 | 9882 ft | 194 kts | 271° |
| 2026-04-29 05:12 | 34.71684 | -112.72416 | 9882 ft | 194 kts | 271° |
| 2026-04-29 05:12 | 34.71639 | -112.74146 | 9887 ft | 190 kts | 259° |
| 2026-04-29 05:12 | 34.71527 | -112.75877 | 9879 ft | 191 kts | 261° |
| 2026-04-29 05:12 | 34.71480 | -112.77630 | 9882 ft | 193 kts | 264° |
| 2026-04-29 05:13 | 34.71475 | -112.79298 | 9882 ft | 194 kts | 265° |
| 2026-04-29 05:13 | 34.71493 | -112.80947 | 9882 ft | 194 kts | 266° |
| 2026-04-29 05:13 | 34.71525 | -112.82586 | 9882 ft | 195 kts | 267° |
| 2026-04-29 05:13 | 34.71567 | -112.84231 | 9882 ft | 195 kts | 267° |
| 2026-04-29 05:14 | 34.71616 | -112.85876 | 9882 ft | 195 kts | 267° |
| 2026-04-29 05:14 | 34.71670 | -112.87528 | 9882 ft | 195 kts | 268° |
| 2026-04-29 05:14 | 34.71726 | -112.89183 | 9882 ft | 195 kts | 268° |
| 2026-04-29 05:14 | 34.71783 | -112.90833 | 9882 ft | 195 kts | 268° |
| 2026-04-29 05:15 | 34.71842 | -112.92477 | 9882 ft | 195 kts | 268° |
| 2026-04-29 05:15 | 34.71901 | -112.94129 | 9882 ft | 195 kts | 268° |
| 2026-04-29 05:15 | 34.71961 | -112.95777 | 9882 ft | 195 kts | 268° |
| 2026-04-29 05:15 | 34.72021 | -112.97430 | 9882 ft | 195 kts | 268° |
| 2026-04-29 05:16 | 34.72080 | -112.99080 | 9882 ft | 195 kts | 268° |
| 2026-04-29 05:16 | 34.72142 | -113.00799 | 9881 ft | 195 kts | 268° |
| 2026-04-29 05:16 | 34.72210 | -113.02678 | 9881 ft | 195 kts | 268° |
| 2026-04-29 05:16 | 34.72270 | -113.04336 | 9881 ft | 195 kts | 268° |
| 2026-04-29 05:17 | 34.72329 | -113.05987 | 9881 ft | 195 kts | 268° |
| 2026-04-29 05:17 | 34.72389 | -113.07655 | 9881 ft | 195 kts | 268° |
| 2026-04-29 05:17 | 34.72447 | -113.09294 | 9881 ft | 195 kts | 268° |
| 2026-04-29 05:17 | 34.72506 | -113.10952 | 9881 ft | 195 kts | 268° |
| 2026-04-29 05:18 | 34.72565 | -113.12615 | 9881 ft | 195 kts | 268° |
| 2026-04-29 05:18 | 34.72623 | -113.14271 | 9881 ft | 195 kts | 268° |
| 2026-04-29 05:18 | 34.72681 | -113.15913 | 9881 ft | 195 kts | 268° |
| 2026-04-29 05:18 | 34.72742 | -113.17670 | 9881 ft | 195 kts | 268° |
| 2026-04-29 05:19 | 34.72802 | -113.19412 | 9881 ft | 195 kts | 268° |
| 2026-04-29 05:19 | 34.72866 | -113.21256 | 9881 ft | 195 kts | 268° |
| 2026-04-29 05:19 | 34.72928 | -113.23069 | 9881 ft | 195 kts | 268° |
| 2026-04-29 05:19 | 34.72992 | -113.24921 | 9881 ft | 195 kts | 268° |
| 2026-04-29 05:20 | 34.73055 | -113.26791 | 9881 ft | 196 kts | 268° |
| 2026-04-29 05:20 | 34.73120 | -113.28697 | 9882 ft | 197 kts | 268° |
| 2026-04-29 05:20 | 34.73185 | -113.30620 | 9881 ft | 198 kts | 268° |
| 2026-04-29 05:20 | 34.73248 | -113.32500 | 9881 ft | 198 kts | 268° |
| 2026-04-29 05:21 | 34.73311 | -113.34361 | 9881 ft | 198 kts | 268° |
| 2026-04-29 05:21 | 34.73369 | -113.36105 | 9865 ft | 199 kts | 268° |
| 2026-04-29 05:21 | 34.73429 | -113.37935 | 9832 ft | 201 kts | 268° |
| 2026-04-29 05:21 | 34.73490 | -113.39771 | 9826 ft | 200 kts | 268° |
| 2026-04-29 05:22 | 34.73552 | -113.41647 | 9826 ft | 200 kts | 268° |
| 2026-04-29 05:22 | 34.73614 | -113.43545 | 9826 ft | 200 kts | 268° |
| 2026-04-29 05:22 | 34.73675 | -113.45423 | 9826 ft | 200 kts | 268° |
| 2026-04-29 05:22 | 34.73737 | -113.47321 | 9826 ft | 200 kts | 268° |
| 2026-04-29 05:23 | 34.73799 | -113.49252 | 9826 ft | 200 kts | 268° |
| 2026-04-29 05:23 | 34.73862 | -113.51201 | 9826 ft | 200 kts | 268° |
| 2026-04-29 05:23 | 34.73924 | -113.53148 | 9826 ft | 200 kts | 268° |
| 2026-04-29 05:23 | 34.73985 | -113.55074 | 9826 ft | 200 kts | 268° |
| 2026-04-29 05:24 | 34.74045 | -113.56969 | 9826 ft | 200 kts | 268° |
| 2026-04-29 05:24 | 34.74105 | -113.58865 | 9826 ft | 200 kts | 268° |
| 2026-04-29 05:24 | 34.74165 | -113.60796 | 9826 ft | 200 kts | 268° |
| 2026-04-29 05:24 | 34.74225 | -113.62700 | 9826 ft | 200 kts | 268° |
| 2026-04-29 05:25 | 34.74283 | -113.64585 | 9827 ft | 200 kts | 268° |
| 2026-04-29 05:25 | 34.74342 | -113.66430 | 9804 ft | 201 kts | 267° |
| 2026-04-29 05:25 | 34.74399 | -113.68327 | 9776 ft | 202 kts | 267° |
| 2026-04-29 05:25 | 34.74458 | -113.70241 | 9773 ft | 201 kts | 267° |
| 2026-04-29 05:26 | 34.74514 | -113.72102 | 9772 ft | 200 kts | 267° |
| 2026-04-29 05:26 | 34.74570 | -113.73949 | 9772 ft | 199 kts | 267° |
| 2026-04-29 05:26 | 34.74625 | -113.75768 | 9774 ft | 199 kts | 267° |
| 2026-04-29 05:26 | 34.74680 | -113.77567 | 9772 ft | 197 kts | 267° |
| 2026-04-29 05:27 | 34.74733 | -113.79356 | 9772 ft | 197 kts | 267° |
| 2026-04-29 05:27 | 34.74834 | -113.82807 | 9772 ft | 196 kts | 267° |
| 2026-04-29 05:27 | 34.74883 | -113.84463 | 9772 ft | 196 kts | 267° |
| 2026-04-29 05:28 | 34.74932 | -113.86140 | 9772 ft | 196 kts | 267° |
| 2026-04-29 05:28 | 34.74980 | -113.87793 | 9772 ft | 196 kts | 267° |
| 2026-04-29 05:28 | 34.75029 | -113.89452 | 9771 ft | 196 kts | 266° |
| 2026-04-29 05:28 | 34.75078 | -113.91144 | 9772 ft | 197 kts | 266° |
| 2026-04-29 05:29 | 34.75126 | -113.92847 | 9773 ft | 198 kts | 266° |
| 2026-04-29 05:29 | 34.75174 | -113.94554 | 9773 ft | 199 kts | 266° |
| 2026-04-29 05:29 | 34.75222 | -113.96240 | 9772 ft | 199 kts | 266° |
| 2026-04-29 05:29 | 34.75269 | -113.97972 | 9772 ft | 199 kts | 266° |
| 2026-04-29 05:30 | 34.75318 | -113.99668 | 9772 ft | 199 kts | 266° |
| 2026-04-29 05:30 | 34.75366 | -114.01377 | 9772 ft | 200 kts | 266° |
| 2026-04-29 05:30 | 34.75413 | -114.03072 | 9772 ft | 200 kts | 266° |
| 2026-04-29 05:30 | 34.75461 | -114.04771 | 9772 ft | 200 kts | 266° |
| 2026-04-29 05:31 | 34.75509 | -114.06496 | 9772 ft | 200 kts | 266° |
| 2026-04-29 05:31 | 34.75557 | -114.08242 | 9772 ft | 200 kts | 266° |
| 2026-04-29 05:31 | 34.75603 | -114.09927 | 9772 ft | 200 kts | 266° |
| 2026-04-29 05:31 | 34.75648 | -114.11613 | 9772 ft | 200 kts | 266° |
| 2026-04-29 05:32 | 34.75695 | -114.13312 | 9772 ft | 200 kts | 266° |
| 2026-04-29 05:32 | 34.75728 | -114.14988 | 9772 ft | 199 kts | 265° |
| 2026-04-29 05:32 | 34.75757 | -114.16679 | 9772 ft | 199 kts | 265° |
| 2026-04-29 05:32 | 34.75790 | -114.18368 | 9772 ft | 200 kts | 266° |
| 2026-04-29 05:33 | 34.75827 | -114.20051 | 9772 ft | 200 kts | 266° |
| 2026-04-29 05:33 | 34.75867 | -114.21738 | 9772 ft | 200 kts | 266° |
| 2026-04-29 05:33 | 34.75908 | -114.23438 | 9772 ft | 200 kts | 266° |
| 2026-04-29 05:33 | 34.75950 | -114.25133 | 9772 ft | 200 kts | 266° |
| 2026-04-29 05:34 | 34.75987 | -114.26885 | 9771 ft | 199 kts | 269° |
| 2026-04-29 05:34 | 34.76030 | -114.28664 | 9771 ft | 199 kts | 269° |
| 2026-04-29 05:34 | 34.76078 | -114.30424 | 9862 ft | 194 kts | 269° |
| 2026-04-29 05:34 | 34.76126 | -114.32250 | 9917 ft | 194 kts | 269° |
| 2026-04-29 05:35 | 34.76170 | -114.33965 | 9926 ft | 195 kts | 269° |
| 2026-04-29 05:35 | 34.76213 | -114.35655 | 9931 ft | 196 kts | 269° |
| 2026-04-29 05:35 | 34.76255 | -114.37312 | 9944 ft | 197 kts | 269° |
| 2026-04-29 05:35 | 34.76297 | -114.38998 | 9945 ft | 197 kts | 269° |
| 2026-04-29 05:36 | 34.76339 | -114.40653 | 9945 ft | 198 kts | 269° |
| 2026-04-29 05:36 | 34.76380 | -114.42335 | 9945 ft | 198 kts | 269° |
| 2026-04-29 05:36 | 34.76422 | -114.44019 | 9945 ft | 198 kts | 269° |
| 2026-04-29 05:36 | 34.76463 | -114.45693 | 9945 ft | 198 kts | 269° |
| 2026-04-29 05:37 | 34.76505 | -114.47448 | 9945 ft | 198 kts | 269° |
| 2026-04-29 05:37 | 34.76546 | -114.49165 | 9945 ft | 198 kts | 269° |
| 2026-04-29 05:37 | 34.76587 | -114.50861 | 9945 ft | 198 kts | 269° |
| 2026-04-29 05:37 | 34.76631 | -114.52666 | 9945 ft | 198 kts | 269° |
| 2026-04-29 05:38 | 34.76673 | -114.54466 | 9944 ft | 198 kts | 269° |
| 2026-04-29 05:38 | 34.76736 | -114.56310 | 9944 ft | 198 kts | 270° |
| 2026-04-29 05:38 | 34.76794 | -114.58118 | 9944 ft | 198 kts | 270° |
| 2026-04-29 05:38 | 34.76843 | -114.59796 | 9944 ft | 198 kts | 270° |
| 2026-04-29 05:39 | 34.76888 | -114.61475 | 9944 ft | 198 kts | 269° |
| 2026-04-29 05:39 | 34.76930 | -114.63146 | 9944 ft | 198 kts | 269° |
| 2026-04-29 05:39 | 34.76972 | -114.64838 | 9944 ft | 198 kts | 269° |
| 2026-04-29 05:39 | 34.77012 | -114.66505 | 9945 ft | 198 kts | 269° |
| 2026-04-29 05:40 | 34.77051 | -114.68190 | 9946 ft | 198 kts | 269° |
| 2026-04-29 05:40 | 34.77090 | -114.69860 | 9946 ft | 199 kts | 269° |
| 2026-04-29 05:40 | 34.77128 | -114.71556 | 9946 ft | 199 kts | 269° |
| 2026-04-29 05:40 | 34.77166 | -114.73224 | 9946 ft | 199 kts | 269° |
| 2026-04-29 05:41 | 34.77205 | -114.74979 | 9946 ft | 199 kts | 269° |
| 2026-04-29 05:41 | 34.77246 | -114.76856 | 9946 ft | 198 kts | 269° |
| 2026-04-29 05:41 | 34.77288 | -114.78778 | 9945 ft | 198 kts | 269° |
| 2026-04-29 05:41 | 34.77329 | -114.80676 | 9945 ft | 198 kts | 269° |
| 2026-04-29 05:42 | 34.77370 | -114.82581 | 9945 ft | 198 kts | 269° |
| 2026-04-29 05:42 | 34.77412 | -114.84499 | 9945 ft | 198 kts | 269° |
| 2026-04-29 05:42 | 34.77452 | -114.86414 | 9945 ft | 198 kts | 269° |
| 2026-04-29 05:42 | 34.77492 | -114.88313 | 9945 ft | 198 kts | 269° |
| 2026-04-29 05:43 | 34.77531 | -114.90196 | 9945 ft | 198 kts | 269° |
| 2026-04-29 05:43 | 34.77571 | -114.92107 | 9945 ft | 198 kts | 269° |
| 2026-04-29 05:43 | 34.77612 | -114.94095 | 9945 ft | 198 kts | 269° |
| 2026-04-29 05:43 | 34.77652 | -114.96069 | 9945 ft | 198 kts | 269° |
| 2026-04-29 05:44 | 34.77692 | -114.98033 | 9945 ft | 198 kts | 269° |
| 2026-04-29 05:44 | 34.77731 | -114.99982 | 9945 ft | 198 kts | 269° |
| 2026-04-29 05:44 | 34.77770 | -115.01924 | 9945 ft | 198 kts | 269° |
| 2026-04-29 05:44 | 34.77805 | -115.03816 | 9945 ft | 198 kts | 268° |
| 2026-04-29 05:45 | 34.77821 | -115.05744 | 9945 ft | 198 kts | 268° |
| 2026-04-29 05:45 | 34.77844 | -115.07683 | 9945 ft | 198 kts | 268° |
| 2026-04-29 05:45 | 34.77873 | -115.09644 | 9945 ft | 198 kts | 269° |
| 2026-04-29 05:45 | 34.77905 | -115.11597 | 9945 ft | 198 kts | 269° |
| 2026-04-29 05:46 | 34.77938 | -115.13586 | 9945 ft | 198 kts | 269° |
| 2026-04-29 05:46 | 34.77974 | -115.15578 | 9945 ft | 198 kts | 269° |
| 2026-04-29 05:46 | 34.78010 | -115.17599 | 9945 ft | 198 kts | 269° |
| 2026-04-29 05:46 | 34.78047 | -115.19632 | 9945 ft | 198 kts | 269° |
| 2026-04-29 05:47 | 34.78082 | -115.21597 | 9945 ft | 198 kts | 269° |
| 2026-04-29 05:47 | 34.78117 | -115.23554 | 9945 ft | 198 kts | 269° |
| 2026-04-29 05:47 | 34.78152 | -115.25491 | 9946 ft | 198 kts | 269° |
| 2026-04-29 05:47 | 34.78183 | -115.27351 | 9945 ft | 197 kts | 269° |
| 2026-04-29 05:48 | 34.78215 | -115.29243 | 9944 ft | 195 kts | 270° |
| 2026-04-29 05:48 | 34.78248 | -115.31091 | 9944 ft | 195 kts | 270° |
| 2026-04-29 05:48 | 34.78281 | -115.32961 | 9944 ft | 194 kts | 270° |
| 2026-04-29 05:48 | 34.78314 | -115.34837 | 9944 ft | 194 kts | 270° |
| 2026-04-29 05:49 | 34.78346 | -115.36729 | 9944 ft | 194 kts | 270° |
| 2026-04-29 05:49 | 34.78378 | -115.38615 | 9944 ft | 194 kts | 270° |
| 2026-04-29 05:49 | 34.78410 | -115.40514 | 9944 ft | 194 kts | 270° |
| 2026-04-29 05:49 | 34.78441 | -115.42398 | 9944 ft | 193 kts | 270° |
| 2026-04-29 05:50 | 34.78472 | -115.44299 | 9944 ft | 193 kts | 270° |
| 2026-04-29 05:50 | 34.78502 | -115.46165 | 9944 ft | 193 kts | 270° |
| 2026-04-29 05:50 | 34.78532 | -115.48026 | 9944 ft | 193 kts | 270° |
| 2026-04-29 05:50 | 34.78562 | -115.49883 | 9944 ft | 193 kts | 270° |
| 2026-04-29 05:51 | 34.78591 | -115.51728 | 9944 ft | 193 kts | 270° |
| 2026-04-29 05:51 | 34.78619 | -115.53546 | 9944 ft | 193 kts | 270° |
| 2026-04-29 05:51 | 34.78648 | -115.55397 | 9944 ft | 193 kts | 270° |
| 2026-04-29 05:51 | 34.78676 | -115.57227 | 9993 ft | 191 kts | 270° |
| 2026-04-29 05:52 | 34.78703 | -115.59036 | 10030 ft | 191 kts | 270° |
| 2026-04-29 05:52 | 34.78730 | -115.60832 | 10035 ft | 191 kts | 270° |
| 2026-04-29 05:52 | 34.78757 | -115.62653 | 10035 ft | 192 kts | 270° |
| 2026-04-29 05:52 | 34.78784 | -115.64505 | 10035 ft | 192 kts | 270° |
| 2026-04-29 05:53 | 34.78810 | -115.66268 | 10037 ft | 193 kts | 269° |
| 2026-04-29 05:53 | 34.78836 | -115.68085 | 10038 ft | 193 kts | 269° |
| 2026-04-29 05:53 | 34.78863 | -115.69949 | 10037 ft | 193 kts | 269° |
| 2026-04-29 05:53 | 34.78889 | -115.71785 | 10037 ft | 193 kts | 269° |
| 2026-04-29 05:54 | 34.78915 | -115.73636 | 10037 ft | 193 kts | 269° |
| 2026-04-29 05:54 | 34.78940 | -115.75487 | 10038 ft | 193 kts | 269° |
| 2026-04-29 05:54 | 34.78965 | -115.77291 | 10038 ft | 192 kts | 269° |
| 2026-04-29 05:54 | 34.78989 | -115.79062 | 10037 ft | 191 kts | 269° |
| 2026-04-29 05:55 | 34.79013 | -115.80846 | 10037 ft | 190 kts | 269° |
| 2026-04-29 05:55 | 34.79037 | -115.82619 | 10037 ft | 190 kts | 269° |
| 2026-04-29 05:55 | 34.79060 | -115.84433 | 10037 ft | 190 kts | 269° |
| 2026-04-29 05:55 | 34.79084 | -115.86269 | 10037 ft | 190 kts | 269° |
| 2026-04-29 05:56 | 34.79107 | -115.88068 | 10037 ft | 190 kts | 269° |
| 2026-04-29 05:56 | 34.79130 | -115.89864 | 10037 ft | 190 kts | 269° |
| 2026-04-29 05:56 | 34.79152 | -115.91630 | 10037 ft | 190 kts | 269° |
| 2026-04-29 05:56 | 34.79174 | -115.93417 | 10037 ft | 190 kts | 269° |
| 2026-04-29 05:57 | 34.79195 | -115.95155 | 10037 ft | 190 kts | 269° |
| 2026-04-29 05:57 | 34.79216 | -115.96941 | 10037 ft | 190 kts | 269° |
| 2026-04-29 05:57 | 34.79237 | -115.98703 | 10037 ft | 189 kts | 269° |
| 2026-04-29 05:57 | 34.79258 | -116.00471 | 10037 ft | 189 kts | 269° |
| 2026-04-29 05:58 | 34.79279 | -116.02268 | 10037 ft | 189 kts | 269° |
| 2026-04-29 05:58 | 34.79300 | -116.04116 | 10036 ft | 189 kts | 269° |
| 2026-04-29 05:58 | 34.79321 | -116.05994 | 10032 ft | 190 kts | 269° |
| 2026-04-29 05:58 | 34.79342 | -116.07888 | 9880 ft | 196 kts | 269° |
| 2026-04-29 05:59 | 34.79364 | -116.09798 | 9855 ft | 194 kts | 269° |
| 2026-04-29 05:59 | 34.79384 | -116.11687 | 9852 ft | 193 kts | 269° |
| 2026-04-29 05:59 | 34.79404 | -116.13560 | 9853 ft | 192 kts | 269° |
| 2026-04-29 05:59 | 34.79424 | -116.15417 | 9852 ft | 192 kts | 269° |
| 2026-04-29 06:00 | 34.79443 | -116.17297 | 9803 ft | 194 kts | 269° |
| 2026-04-29 06:00 | 34.79462 | -116.19153 | 9791 ft | 194 kts | 269° |
| 2026-04-29 06:00 | 34.79480 | -116.20967 | 9789 ft | 193 kts | 269° |
| 2026-04-29 06:00 | 34.79498 | -116.22786 | 9789 ft | 193 kts | 269° |
| 2026-04-29 06:01 | 34.79516 | -116.24606 | 9789 ft | 192 kts | 269° |
| 2026-04-29 06:01 | 34.79538 | -116.26436 | 9789 ft | 192 kts | 268° |
| 2026-04-29 06:01 | 34.79556 | -116.28350 | 9789 ft | 191 kts | 268° |
| 2026-04-29 06:01 | 34.79572 | -116.30245 | 9789 ft | 190 kts | 268° |
| 2026-04-29 06:02 | 34.79588 | -116.32091 | 9789 ft | 190 kts | 268° |
| 2026-04-29 06:02 | 34.79604 | -116.33881 | 9789 ft | 190 kts | 268° |
| 2026-04-29 06:02 | 34.79620 | -116.35751 | 9789 ft | 190 kts | 268° |
| 2026-04-29 06:02 | 34.79636 | -116.37594 | 9789 ft | 190 kts | 268° |
| 2026-04-29 06:03 | 34.79651 | -116.39422 | 9788 ft | 190 kts | 268° |
| 2026-04-29 06:03 | 34.79666 | -116.41223 | 9788 ft | 189 kts | 268° |
| 2026-04-29 06:03 | 34.79681 | -116.43044 | 9788 ft | 189 kts | 268° |
| 2026-04-29 06:03 | 34.79696 | -116.44814 | 9788 ft | 189 kts | 268° |
| 2026-04-29 06:04 | 34.79608 | -116.46584 | 9789 ft | 188 kts | 262° |
| 2026-04-29 06:04 | 34.79451 | -116.48337 | 9788 ft | 188 kts | 261° |
| 2026-04-29 06:04 | 34.79286 | -116.50097 | 9788 ft | 188 kts | 261° |
| 2026-04-29 06:04 | 34.79120 | -116.51839 | 9788 ft | 188 kts | 261° |
| 2026-04-29 06:05 | 34.78962 | -116.53490 | 9788 ft | 188 kts | 261° |
| 2026-04-29 06:05 | 34.78799 | -116.55180 | 9788 ft | 188 kts | 261° |
| 2026-04-29 06:05 | 34.78639 | -116.56847 | 9788 ft | 188 kts | 261° |
| 2026-04-29 06:05 | 34.78476 | -116.58521 | 9788 ft | 188 kts | 261° |
| 2026-04-29 06:06 | 34.78314 | -116.60190 | 9788 ft | 188 kts | 261° |
| 2026-04-29 06:06 | 34.78152 | -116.61855 | 9788 ft | 188 kts | 261° |
| 2026-04-29 06:06 | 34.77990 | -116.63517 | 9788 ft | 188 kts | 261° |
| 2026-04-29 06:06 | 34.77830 | -116.65157 | 9788 ft | 188 kts | 261° |
| 2026-04-29 06:07 | 34.77672 | -116.66768 | 9791 ft | 188 kts | 261° |
| 2026-04-29 06:07 | 34.77512 | -116.68407 | 9791 ft | 188 kts | 261° |
| 2026-04-29 06:07 | 34.77345 | -116.70105 | 9791 ft | 189 kts | 261° |
| 2026-04-29 06:07 | 34.77167 | -116.71922 | 9791 ft | 189 kts | 261° |
| 2026-04-29 06:08 | 34.76988 | -116.73738 | 9791 ft | 189 kts | 261° |
| 2026-04-29 06:08 | 34.76810 | -116.75544 | 9790 ft | 189 kts | 261° |
| 2026-04-29 06:08 | 34.76644 | -116.77179 | 9791 ft | 188 kts | 262° |
| 2026-04-29 06:08 | 34.76490 | -116.78755 | 9790 ft | 188 kts | 262° |
| 2026-04-29 06:09 | 34.76335 | -116.80331 | 9790 ft | 188 kts | 262° |
| 2026-04-29 06:09 | 34.76174 | -116.81961 | 9790 ft | 188 kts | 262° |
| 2026-04-29 06:09 | 34.76016 | -116.83556 | 9790 ft | 188 kts | 262° |
| 2026-04-29 06:09 | 34.75860 | -116.85136 | 9790 ft | 188 kts | 262° |
| 2026-04-29 06:10 | 34.75393 | -116.86603 | 9799 ft | 187 kts | 229° |
| 2026-04-29 06:10 | 34.74542 | -116.87794 | 9794 ft | 188 kts | 230° |
| 2026-04-29 06:10 | 34.73677 | -116.89004 | 9789 ft | 190 kts | 229° |
| 2026-04-29 06:10 | 34.72795 | -116.90227 | 9791 ft | 192 kts | 229° |
| 2026-04-29 06:11 | 34.71916 | -116.91444 | 9790 ft | 193 kts | 229° |
| 2026-04-29 06:11 | 34.71032 | -116.92664 | 9790 ft | 193 kts | 229° |
| 2026-04-29 06:11 | 34.70137 | -116.93899 | 9790 ft | 194 kts | 229° |
| 2026-04-29 06:11 | 34.69252 | -116.95120 | 9790 ft | 194 kts | 229° |
| 2026-04-29 06:12 | 34.68353 | -116.96359 | 9790 ft | 194 kts | 229° |
| 2026-04-29 06:12 | 34.67469 | -116.97577 | 9789 ft | 194 kts | 229° |
| 2026-04-29 06:12 | 34.66575 | -116.98807 | 9789 ft | 194 kts | 229° |
| 2026-04-29 06:12 | 34.65679 | -117.00040 | 9789 ft | 194 kts | 229° |
| 2026-04-29 06:13 | 34.64790 | -117.01263 | 9789 ft | 194 kts | 229° |
| 2026-04-29 06:13 | 34.63893 | -117.02496 | 9789 ft | 194 kts | 229° |
| 2026-04-29 06:13 | 34.62997 | -117.03728 | 9789 ft | 194 kts | 229° |
| 2026-04-29 06:13 | 34.62096 | -117.04966 | 9789 ft | 194 kts | 229° |
| 2026-04-29 06:14 | 34.61158 | -117.06255 | 9822 ft | 192 kts | 229° |
| 2026-04-29 06:14 | 34.60267 | -117.07478 | 9849 ft | 192 kts | 229° |
| 2026-04-29 06:14 | 34.59380 | -117.08695 | 9853 ft | 193 kts | 229° |
| 2026-04-29 06:14 | 34.58481 | -117.09927 | 9853 ft | 193 kts | 229° |
| 2026-04-29 06:15 | 34.57593 | -117.11146 | 9853 ft | 193 kts | 229° |
| 2026-04-29 06:15 | 34.56696 | -117.12376 | 9853 ft | 194 kts | 229° |
| 2026-04-29 06:15 | 34.55798 | -117.13605 | 9853 ft | 194 kts | 229° |
| 2026-04-29 06:15 | 34.54752 | -117.14661 | 9859 ft | 194 kts | 209° |
| 2026-04-29 06:16 | 34.53499 | -117.15507 | 9853 ft | 195 kts | 209° |
| 2026-04-29 06:16 | 34.52252 | -117.16323 | 9851 ft | 195 kts | 207° |
| 2026-04-29 06:16 | 34.50979 | -117.17120 | 9854 ft | 195 kts | 209° |
| 2026-04-29 06:16 | 34.49720 | -117.17904 | 9853 ft | 195 kts | 208° |
| 2026-04-29 06:17 | 34.48426 | -117.18705 | 9853 ft | 195 kts | 208° |
| 2026-04-29 06:17 | 34.47150 | -117.19491 | 9876 ft | 194 kts | 208° |
| 2026-04-29 06:17 | 34.45915 | -117.20245 | 9914 ft | 193 kts | 208° |
| 2026-04-29 06:17 | 34.44653 | -117.21014 | 9916 ft | 193 kts | 208° |
| 2026-04-29 06:18 | 34.43393 | -117.21783 | 9917 ft | 193 kts | 208° |
| 2026-04-29 06:18 | 34.42123 | -117.22555 | 9917 ft | 193 kts | 208° |
| 2026-04-29 06:18 | 34.40868 | -117.23319 | 9917 ft | 193 kts | 208° |
| 2026-04-29 06:18 | 34.39636 | -117.24066 | 9916 ft | 193 kts | 208° |
| 2026-04-29 06:19 | 34.38407 | -117.24812 | 9916 ft | 193 kts | 208° |
| 2026-04-29 06:19 | 34.37199 | -117.25545 | 9916 ft | 194 kts | 208° |
| 2026-04-29 06:19 | 34.35972 | -117.26287 | 9916 ft | 195 kts | 209° |
| 2026-04-29 06:19 | 34.34737 | -117.27034 | 9917 ft | 196 kts | 209° |
| 2026-04-29 06:20 | 34.33500 | -117.27785 | 9946 ft | 195 kts | 209° |
| 2026-04-29 06:20 | 34.32275 | -117.28527 | 9952 ft | 196 kts | 209° |
| 2026-04-29 06:20 | 34.31006 | -117.29296 | 9953 ft | 197 kts | 209° |
| 2026-04-29 06:20 | 34.29741 | -117.30062 | 9953 ft | 197 kts | 209° |
| 2026-04-29 06:21 | 34.28498 | -117.30815 | 9953 ft | 197 kts | 209° |
| 2026-04-29 06:21 | 34.27214 | -117.31592 | 9953 ft | 197 kts | 209° |
| 2026-04-29 06:21 | 34.25971 | -117.32343 | 9953 ft | 197 kts | 209° |
| 2026-04-29 06:21 | 34.24728 | -117.33095 | 9953 ft | 197 kts | 209° |
| 2026-04-29 06:22 | 34.23473 | -117.33843 | 9952 ft | 197 kts | 211° |
| 2026-04-29 06:22 | 34.22205 | -117.34602 | 9952 ft | 197 kts | 213° |
| 2026-04-29 06:22 | 34.20953 | -117.35363 | 9952 ft | 196 kts | 213° |
| 2026-04-29 06:22 | 34.19687 | -117.36131 | 9952 ft | 196 kts | 212° |
| 2026-04-29 06:23 | 34.18423 | -117.36897 | 9952 ft | 196 kts | 212° |
| 2026-04-29 06:23 | 34.17138 | -117.37674 | 9952 ft | 196 kts | 212° |
| 2026-04-29 06:23 | 34.15876 | -117.38436 | 9952 ft | 196 kts | 212° |
| 2026-04-29 06:23 | 34.14625 | -117.39191 | 9952 ft | 196 kts | 212° |
| 2026-04-29 06:24 | 34.13364 | -117.39951 | 9952 ft | 196 kts | 212° |
| 2026-04-29 06:24 | 34.12105 | -117.40710 | 9952 ft | 196 kts | 212° |
| 2026-04-29 06:24 | 34.10824 | -117.41482 | 9952 ft | 196 kts | 212° |
| 2026-04-29 06:24 | 34.09646 | -117.42398 | 9933 ft | 189 kts | 237° |
| 2026-04-29 06:25 | 34.09163 | -117.43922 | 9955 ft | 184 kts | 257° |
| 2026-04-29 06:25 | 34.08898 | -117.45467 | 9952 ft | 183 kts | 262° |
| 2026-04-29 06:25 | 34.08717 | -117.46994 | 9944 ft | 183 kts | 265° |
| 2026-04-29 06:25 | 34.08581 | -117.48540 | 9943 ft | 183 kts | 266° |
| 2026-04-29 06:26 | 34.08480 | -117.50057 | 9943 ft | 183 kts | 267° |
| 2026-04-29 06:26 | 34.08400 | -117.51592 | 9943 ft | 183 kts | 268° |
| 2026-04-29 06:26 | 34.08334 | -117.53138 | 9943 ft | 183 kts | 269° |
| 2026-04-29 06:26 | 34.08278 | -117.54660 | 9942 ft | 183 kts | 269° |
| 2026-04-29 06:27 | 34.08228 | -117.56203 | 9942 ft | 183 kts | 269° |
| 2026-04-29 06:27 | 34.08184 | -117.57735 | 9942 ft | 183 kts | 269° |
| 2026-04-29 06:27 | 34.08141 | -117.59283 | 9942 ft | 183 kts | 270° |
| 2026-04-29 06:27 | 34.08103 | -117.60824 | 9942 ft | 183 kts | 269° |
| 2026-04-29 06:28 | 34.08064 | -117.62362 | 9942 ft | 183 kts | 269° |
| 2026-04-29 06:28 | 34.08024 | -117.63883 | 9942 ft | 183 kts | 269° |
| 2026-04-29 06:28 | 34.07988 | -117.65430 | 9935 ft | 183 kts | 269° |
| 2026-04-29 06:28 | 34.07951 | -117.66966 | 9777 ft | 185 kts | 269° |
| 2026-04-29 06:29 | 34.07914 | -117.68530 | 9631 ft | 185 kts | 269° |
| 2026-04-29 06:29 | 34.07876 | -117.70089 | 9484 ft | 186 kts | 269° |
| 2026-04-29 06:29 | 34.07838 | -117.71652 | 9336 ft | 186 kts | 269° |
| 2026-04-29 06:29 | 34.07801 | -117.73211 | 9189 ft | 186 kts | 269° |
| 2026-04-29 06:30 | 34.07762 | -117.74800 | 9039 ft | 186 kts | 269° |
| 2026-04-29 06:30 | 34.07683 | -117.78062 | 8730 ft | 186 kts | 270° |
| 2026-04-29 06:30 | 34.07664 | -117.79681 | 8576 ft | 186 kts | 270° |
| 2026-04-29 06:31 | 34.07643 | -117.81293 | 8423 ft | 186 kts | 269° |
| 2026-04-29 06:31 | 34.07621 | -117.82931 | 8268 ft | 186 kts | 269° |
| 2026-04-29 06:31 | 34.07599 | -117.84571 | 8112 ft | 187 kts | 269° |
| 2026-04-29 06:31 | 34.07578 | -117.86151 | 7962 ft | 187 kts | 270° |
| 2026-04-29 06:32 | 34.07571 | -117.87731 | 7812 ft | 187 kts | 270° |
| 2026-04-29 06:32 | 34.07545 | -117.89321 | 7660 ft | 187 kts | 268° |
| 2026-04-29 06:32 | 34.07496 | -117.90928 | 7507 ft | 187 kts | 267° |
| 2026-04-29 06:32 | 34.07442 | -117.92500 | 7357 ft | 187 kts | 268° |
| 2026-04-29 06:33 | 34.07396 | -117.94076 | 7208 ft | 187 kts | 269° |
| 2026-04-29 06:33 | 34.07368 | -117.95671 | 7056 ft | 187 kts | 269° |
| 2026-04-29 06:33 | 34.07343 | -117.97266 | 6903 ft | 187 kts | 269° |
| 2026-04-29 06:33 | 34.07322 | -117.98838 | 6752 ft | 187 kts | 269° |
| 2026-04-29 06:34 | 34.07301 | -118.00425 | 6600 ft | 187 kts | 269° |
| 2026-04-29 06:34 | 34.07282 | -118.02000 | 6449 ft | 187 kts | 269° |
| 2026-04-29 06:34 | 34.07265 | -118.03551 | 6300 ft | 187 kts | 269° |
| 2026-04-29 06:34 | 34.07249 | -118.05134 | 6149 ft | 187 kts | 269° |
| 2026-04-29 06:35 | 34.07234 | -118.06697 | 5999 ft | 187 kts | 269° |
| 2026-04-29 06:35 | 34.07222 | -118.08241 | 5843 ft | 182 kts | 269° |
| 2026-04-29 06:35 | 34.07211 | -118.09757 | 5688 ft | 179 kts | 269° |
| 2026-04-29 06:35 | 34.07201 | -118.11252 | 5535 ft | 177 kts | 269° |
| 2026-04-29 06:36 | 34.07192 | -118.12744 | 5382 ft | 176 kts | 269° |
| 2026-04-29 06:36 | 34.07184 | -118.14212 | 5231 ft | 176 kts | 269° |
| 2026-04-29 06:36 | 34.07176 | -118.15700 | 5079 ft | 176 kts | 269° |
| 2026-04-29 06:36 | 34.07169 | -118.17160 | 4929 ft | 176 kts | 269° |
| 2026-04-29 06:37 | 34.07164 | -118.18642 | 4777 ft | 176 kts | 269° |
| 2026-04-29 06:37 | 34.07157 | -118.20142 | 4623 ft | 176 kts | 269° |
| 2026-04-29 06:37 | 34.07152 | -118.21639 | 4470 ft | 176 kts | 269° |
| 2026-04-29 06:37 | 34.07151 | -118.23093 | 4314 ft | 171 kts | 269° |
| 2026-04-29 06:38 | 34.07152 | -118.24531 | 4157 ft | 168 kts | 269° |
| 2026-04-29 06:38 | 34.07153 | -118.25926 | 4003 ft | 167 kts | 269° |
| 2026-04-29 06:38 | 34.07152 | -118.27328 | 3849 ft | 166 kts | 269° |
| 2026-04-29 06:38 | 34.07138 | -118.28713 | 3704 ft | 165 kts | 268° |
| 2026-04-29 06:39 | 34.07127 | -118.30093 | 3579 ft | 163 kts | 268° |
| 2026-04-29 06:39 | 34.07121 | -118.31446 | 3423 ft | 161 kts | 268° |
| 2026-04-29 06:39 | 34.07118 | -118.32788 | 3269 ft | 159 kts | 268° |
| 2026-04-29 06:39 | 34.07088 | -118.34125 | 3090 ft | 160 kts | 258° |
| 2026-04-29 06:40 | 34.06687 | -118.35361 | 2685 ft | 154 kts | 243° |
| 2026-04-29 06:40 | 34.06316 | -118.36513 | 2386 ft | 146 kts | 250° |
| 2026-04-29 06:40 | 34.06048 | -118.37605 | 2249 ft | 124 kts | 249° |
| 2026-04-29 06:40 | 34.05775 | -118.38570 | 2031 ft | 121 kts | 249° |
| 2026-04-29 06:41 | 34.05450 | -118.39490 | 1758 ft | 118 kts | 236° |
| 2026-04-29 06:41 | 34.05004 | -118.40288 | 1570 ft | 111 kts | 235° |
| 2026-04-29 06:41 | 34.04633 | -118.41058 | 1426 ft | 104 kts | 237° |
| 2026-04-29 06:41 | 34.04265 | -118.41801 | 1285 ft | 102 kts | 232° |
| 2026-04-29 06:42 | 34.03829 | -118.42437 | 1139 ft | 95 kts | 227° |
| 2026-04-29 06:42 | 34.03384 | -118.42972 | 902 ft | 85 kts | 227° |
| 2026-04-29 06:42 | 34.02969 | -118.43480 | 684 ft | 85 kts | 227° |
| 2026-04-29 06:42 | 34.02546 | -118.43987 | 461 ft | 88 kts | 231° |
| 2026-04-29 06:43 | 34.02110 | -118.44504 | 249 ft | 86 kts | 230° |
| 2026-04-29 06:43 | 34.01733 | -118.44951 | 154 ft | 63 kts | 226° |
| 2026-04-29 06:43 | 34.01485 | -118.45243 | 135 ft | 20 kts | 227° |
| 2026-04-29 06:43 | 34.01423 | -118.45224 | 133 ft | 2 kts | 152° |
| 2026-04-29 06:44 | 34.01414 | -118.45222 | 133 ft | 2 kts | 191° |
| 2026-04-29 06:44 | 34.01394 | -118.45242 | 132 ft | 5 kts | 236° |
| 2026-04-29 06:44 | 34.01361 | -118.45282 | 130 ft | 8 kts | 226° |
| 2026-04-29 06:44 | 34.01315 | -118.45338 | 128 ft | 10 kts | 224° |
| 2026-04-29 06:45 | 34.01271 | -118.45353 | 126 ft | 8 kts | 88° |
| 2026-04-29 06:45 | 34.01294 | -118.45290 | 128 ft | 8 kts | 47° |
| 2026-04-29 06:45 | 34.01336 | -118.45242 | 130 ft | 7 kts | 44° |
| 2026-04-29 06:45 | 34.01370 | -118.45194 | 132 ft | 7 kts | 86° |
| 2026-04-29 06:46 | 34.01318 | -118.45155 | 131 ft | 10 kts | 208° |
| 2026-04-29 06:46 | 34.01301 | -118.45187 | 130 ft | 0 kts | 306° |
| 2026-04-29 06:46 | 34.01309 | -118.45194 | 130 ft | 0 kts | 310° |